sensor_id;sensor_type;location;lat;lon;timestamp;temperature;humidity
22781;DHT22;11557;50.884;4.322;2023-11-19T00:00:31;14.50;99.90
22781;DHT22;11557;50.884;4.322;2023-11-19T00:02:57;14.50;99.90
22781;DHT22;11557;50.884;4.322;2023-11-19T00:05:22;14.50;99.90
22781;DHT22;11557;50.884;4.322;2023-11-19T00:07:48;14.50;99.90
22781;DHT22;11557;50.884;4.322;2023-11-19T00:10:14;14.50;99.90
22781;DHT22;11557;50.884;4.322;2023-11-19T00:12:46;14.40;99.90
22781;DHT22;11557;50.884;4.322;2023-11-19T00:15:13;14.40;99.90
22781;DHT22;11557;50.884;4.322;2023-11-19T00:17:39;14.40;99.90
22781;DHT22;11557;50.884;4.322;2023-11-19T00:20:14;14.20;99.90
22781;DHT22;11557;50.884;4.322;2023-11-19T00:22:40;14.50;99.90
22781;DHT22;11557;50.884;4.322;2023-11-19T00:25:07;14.40;99.90
22781;DHT22;11557;50.884;4.322;2023-11-19T00:27:33;14.40;99.90
22781;DHT22;11557;50.884;4.322;2023-11-19T00:29:59;14.30;99.90
22781;DHT22;11557;50.884;4.322;2023-11-19T00:32:24;14.40;99.90
22781;DHT22;11557;50.884;4.322;2023-11-19T00:34:50;14.40;99.90
22781;DHT22;11557;50.884;4.322;2023-11-19T00:37:16;14.40;99.90
22781;DHT22;11557;50.884;4.322;2023-11-19T00:39:42;14.50;99.90
22781;DHT22;11557;50.884;4.322;2023-11-19T00:42:09;14.40;99.90
22781;DHT22;11557;50.884;4.322;2023-11-19T00:44:35;14.40;99.90
22781;DHT22;11557;50.884;4.322;2023-11-19T00:47:01;14.40;99.90
22781;DHT22;11557;50.884;4.322;2023-11-19T00:49:27;14.40;99.90
22781;DHT22;11557;50.884;4.322;2023-11-19T00:51:52;14.40;99.90
22781;DHT22;11557;50.884;4.322;2023-11-19T00:54:18;14.50;99.90
22781;DHT22;11557;50.884;4.322;2023-11-19T00:56:44;14.50;99.90
22781;DHT22;11557;50.884;4.322;2023-11-19T00:59:10;14.40;99.90
22781;DHT22;11557;50.884;4.322;2023-11-19T01:01:36;14.50;99.90
22781;DHT22;11557;50.884;4.322;2023-11-19T01:04:01;14.40;99.90
22781;DHT22;11557;50.884;4.322;2023-11-19T01:06:28;14.40;99.90
22781;DHT22;11557;50.884;4.322;2023-11-19T01:08:54;14.50;99.90
22781;DHT22;11557;50.884;4.322;2023-11-19T01:11:22;14.40;99.90
22781;DHT22;11557;50.884;4.322;2023-11-19T01:13:48;14.40;99.90
22781;DHT22;11557;50.884;4.322;2023-11-19T01:16:14;14.50;99.90
22781;DHT22;11557;50.884;4.322;2023-11-19T01:18:39;14.40;99.90
22781;DHT22;11557;50.884;4.322;2023-11-19T01:21:05;14.40;99.90
22781;DHT22;11557;50.884;4.322;2023-11-19T01:23:31;14.30;99.90
22781;DHT22;11557;50.884;4.322;2023-11-19T01:25:58;14.20;99.90
22781;DHT22;11557;50.884;4.322;2023-11-19T01:28:23;14.30;99.90
22781;DHT22;11557;50.884;4.322;2023-11-19T01:30:52;14.30;99.90
22781;DHT22;11557;50.884;4.322;2023-11-19T01:33:18;14.40;99.90
22781;DHT22;11557;50.884;4.322;2023-11-19T01:35:43;14.20;99.90
22781;DHT22;11557;50.884;4.322;2023-11-19T01:38:09;14.00;99.90
22781;DHT22;11557;50.884;4.322;2023-11-19T01:40:35;14.00;99.90
22781;DHT22;11557;50.884;4.322;2023-11-19T01:43:03;14.10;99.90
22781;DHT22;11557;50.884;4.322;2023-11-19T01:45:30;14.10;99.90
22781;DHT22;11557;50.884;4.322;2023-11-19T01:47:57;14.10;99.90
22781;DHT22;11557;50.884;4.322;2023-11-19T01:50:24;14.10;99.90
22781;DHT22;11557;50.884;4.322;2023-11-19T01:52:54;14.10;99.90
22781;DHT22;11557;50.884;4.322;2023-11-19T01:55:20;14.10;99.90
22781;DHT22;11557;50.884;4.322;2023-11-19T01:57:47;14.20;99.90
22781;DHT22;11557;50.884;4.322;2023-11-19T02:00:15;14.10;99.90
22781;DHT22;11557;50.884;4.322;2023-11-19T02:02:42;14.10;99.90
22781;DHT22;11557;50.884;4.322;2023-11-19T02:05:10;14.10;99.90
22781;DHT22;11557;50.884;4.322;2023-11-19T02:07:36;14.20;99.90
22781;DHT22;11557;50.884;4.322;2023-11-19T02:10:02;14.10;99.90
22781;DHT22;11557;50.884;4.322;2023-11-19T02:12:28;14.10;99.90
22781;DHT22;11557;50.884;4.322;2023-11-19T02:14:54;14.10;99.90
22781;DHT22;11557;50.884;4.322;2023-11-19T02:17:30;14.00;99.90
22781;DHT22;11557;50.884;4.322;2023-11-19T02:19:57;14.10;99.90
22781;DHT22;11557;50.884;4.322;2023-11-19T02:22:24;14.20;99.90
22781;DHT22;11557;50.884;4.322;2023-11-19T02:24:56;14.30;99.90
22781;DHT22;11557;50.884;4.322;2023-11-19T02:30:17;14.10;99.90
22781;DHT22;11557;50.884;4.322;2023-11-19T02:32:43;14.10;99.90
22781;DHT22;11557;50.884;4.322;2023-11-19T02:35:08;14.10;99.90
22781;DHT22;11557;50.884;4.322;2023-11-19T02:37:34;14.10;99.90
22781;DHT22;11557;50.884;4.322;2023-11-19T02:40:00;14.20;99.90
22781;DHT22;11557;50.884;4.322;2023-11-19T02:42:28;14.20;99.90
22781;DHT22;11557;50.884;4.322;2023-11-19T02:44:54;14.20;99.90
22781;DHT22;11557;50.884;4.322;2023-11-19T02:47:20;14.20;99.90
22781;DHT22;11557;50.884;4.322;2023-11-19T02:49:47;14.20;99.90
22781;DHT22;11557;50.884;4.322;2023-11-19T02:52:13;14.30;99.90
22781;DHT22;11557;50.884;4.322;2023-11-19T02:54:40;14.30;99.90
22781;DHT22;11557;50.884;4.322;2023-11-19T02:57:07;14.10;99.90
22781;DHT22;11557;50.884;4.322;2023-11-19T02:59:39;14.20;99.90
22781;DHT22;11557;50.884;4.322;2023-11-19T03:02:07;14.10;99.90
22781;DHT22;11557;50.884;4.322;2023-11-19T03:04:38;14.00;99.90
22781;DHT22;11557;50.884;4.322;2023-11-19T03:07:08;13.90;99.90
22781;DHT22;11557;50.884;4.322;2023-11-19T03:09:33;13.90;99.90
22781;DHT22;11557;50.884;4.322;2023-11-19T03:12:01;13.90;99.90
22781;DHT22;11557;50.884;4.322;2023-11-19T03:14:26;13.90;99.90
22781;DHT22;11557;50.884;4.322;2023-11-19T03:16:53;13.90;99.90
22781;DHT22;11557;50.884;4.322;2023-11-19T03:19:18;13.80;99.90
22781;DHT22;11557;50.884;4.322;2023-11-19T03:21:44;13.80;99.90
22781;DHT22;11557;50.884;4.322;2023-11-19T03:24:12;13.80;99.90
22781;DHT22;11557;50.884;4.322;2023-11-19T03:26:38;13.60;99.90
22781;DHT22;11557;50.884;4.322;2023-11-19T03:29:04;13.50;99.90
22781;DHT22;11557;50.884;4.322;2023-11-19T03:31:30;13.40;99.90
22781;DHT22;11557;50.884;4.322;2023-11-19T03:33:56;13.50;99.90
22781;DHT22;11557;50.884;4.322;2023-11-19T03:36:22;13.60;99.90
22781;DHT22;11557;50.884;4.322;2023-11-19T03:38:48;13.60;99.90
22781;DHT22;11557;50.884;4.322;2023-11-19T03:41:14;13.60;99.90
22781;DHT22;11557;50.884;4.322;2023-11-19T03:43:40;13.50;99.90
22781;DHT22;11557;50.884;4.322;2023-11-19T03:46:19;13.40;99.90
22781;DHT22;11557;50.884;4.322;2023-11-19T03:48:48;13.50;99.90
22781;DHT22;11557;50.884;4.322;2023-11-19T03:51:14;13.50;99.90
22781;DHT22;11557;50.884;4.322;2023-11-19T03:53:44;13.50;99.90
22781;DHT22;11557;50.884;4.322;2023-11-19T03:56:11;13.50;99.90
22781;DHT22;11557;50.884;4.322;2023-11-19T03:58:37;13.40;99.90
22781;DHT22;11557;50.884;4.322;2023-11-19T04:01:04;13.40;99.90
22781;DHT22;11557;50.884;4.322;2023-11-19T04:03:30;13.40;99.90
22781;DHT22;11557;50.884;4.322;2023-11-19T04:05:56;13.20;99.90
22781;DHT22;11557;50.884;4.322;2023-11-19T04:08:22;13.30;99.90
22781;DHT22;11557;50.884;4.322;2023-11-19T04:10:48;13.30;99.90
22781;DHT22;11557;50.884;4.322;2023-11-19T04:13:14;13.20;99.90
22781;DHT22;11557;50.884;4.322;2023-11-19T04:15:40;13.30;99.90
22781;DHT22;11557;50.884;4.322;2023-11-19T04:18:06;13.30;99.90
22781;DHT22;11557;50.884;4.322;2023-11-19T04:20:31;13.30;99.90
22781;DHT22;11557;50.884;4.322;2023-11-19T04:22:57;13.30;99.90
22781;DHT22;11557;50.884;4.322;2023-11-19T04:25:23;13.20;99.90
22781;DHT22;11557;50.884;4.322;2023-11-19T04:27:51;13.20;99.90
22781;DHT22;11557;50.884;4.322;2023-11-19T04:30:20;13.30;99.90
22781;DHT22;11557;50.884;4.322;2023-11-19T04:32:46;13.30;99.90
22781;DHT22;11557;50.884;4.322;2023-11-19T04:35:11;13.20;99.90
22781;DHT22;11557;50.884;4.322;2023-11-19T04:37:37;13.30;99.90
22781;DHT22;11557;50.884;4.322;2023-11-19T04:40:03;13.20;99.90
22781;DHT22;11557;50.884;4.322;2023-11-19T04:42:29;13.20;99.90
22781;DHT22;11557;50.884;4.322;2023-11-19T04:44:55;13.20;99.90
22781;DHT22;11557;50.884;4.322;2023-11-19T04:47:21;13.10;99.90
22781;DHT22;11557;50.884;4.322;2023-11-19T04:49:46;13.10;99.90
22781;DHT22;11557;50.884;4.322;2023-11-19T04:52:12;13.10;99.90
22781;DHT22;11557;50.884;4.322;2023-11-19T04:54:44;12.90;99.90
22781;DHT22;11557;50.884;4.322;2023-11-19T04:57:10;12.90;99.90
22781;DHT22;11557;50.884;4.322;2023-11-19T04:59:37;13.00;99.90
22781;DHT22;11557;50.884;4.322;2023-11-19T05:02:02;13.10;99.90
22781;DHT22;11557;50.884;4.322;2023-11-19T05:04:29;13.10;99.90
22781;DHT22;11557;50.884;4.322;2023-11-19T05:06:55;13.00;99.90
22781;DHT22;11557;50.884;4.322;2023-11-19T05:09:21;13.10;99.90
22781;DHT22;11557;50.884;4.322;2023-11-19T05:11:46;13.00;99.90
22781;DHT22;11557;50.884;4.322;2023-11-19T05:14:12;13.20;99.90
22781;DHT22;11557;50.884;4.322;2023-11-19T05:16:41;13.10;99.90
22781;DHT22;11557;50.884;4.322;2023-11-19T05:19:08;13.20;99.90
22781;DHT22;11557;50.884;4.322;2023-11-19T05:21:34;13.20;99.90
22781;DHT22;11557;50.884;4.322;2023-11-19T05:24:02;13.10;99.90
22781;DHT22;11557;50.884;4.322;2023-11-19T05:26:30;13.00;99.90
22781;DHT22;11557;50.884;4.322;2023-11-19T05:28:57;12.90;99.90
22781;DHT22;11557;50.884;4.322;2023-11-19T05:31:22;12.90;99.90
22781;DHT22;11557;50.884;4.322;2023-11-19T05:33:48;12.90;99.90
22781;DHT22;11557;50.884;4.322;2023-11-19T05:36:14;12.90;99.90
22781;DHT22;11557;50.884;4.322;2023-11-19T05:38:40;12.90;99.90
22781;DHT22;11557;50.884;4.322;2023-11-19T05:41:05;13.00;99.90
22781;DHT22;11557;50.884;4.322;2023-11-19T05:43:32;13.00;99.90
22781;DHT22;11557;50.884;4.322;2023-11-19T05:45:58;13.00;99.90
22781;DHT22;11557;50.884;4.322;2023-11-19T05:48:26;13.00;99.90
22781;DHT22;11557;50.884;4.322;2023-11-19T05:50:52;12.90;99.90
22781;DHT22;11557;50.884;4.322;2023-11-19T05:53:17;12.90;99.90
22781;DHT22;11557;50.884;4.322;2023-11-19T05:55:43;13.00;99.90
22781;DHT22;11557;50.884;4.322;2023-11-19T05:58:15;12.80;99.90
22781;DHT22;11557;50.884;4.322;2023-11-19T06:00:41;12.90;99.90
22781;DHT22;11557;50.884;4.322;2023-11-19T06:03:07;12.80;99.90
22781;DHT22;11557;50.884;4.322;2023-11-19T06:05:33;12.90;99.90
22781;DHT22;11557;50.884;4.322;2023-11-19T06:07:58;12.90;99.90
22781;DHT22;11557;50.884;4.322;2023-11-19T06:10:24;12.90;99.90
22781;DHT22;11557;50.884;4.322;2023-11-19T06:12:59;12.80;99.90
22781;DHT22;11557;50.884;4.322;2023-11-19T06:15:26;12.80;99.90
22781;DHT22;11557;50.884;4.322;2023-11-19T06:17:55;12.80;99.90
22781;DHT22;11557;50.884;4.322;2023-11-19T06:20:21;12.70;99.90
22781;DHT22;11557;50.884;4.322;2023-11-19T06:22:46;12.80;99.90
22781;DHT22;11557;50.884;4.322;2023-11-19T06:25:13;12.80;99.90
22781;DHT22;11557;50.884;4.322;2023-11-19T06:27:41;12.70;99.90
22781;DHT22;11557;50.884;4.322;2023-11-19T06:30:07;12.80;99.90
22781;DHT22;11557;50.884;4.322;2023-11-19T06:32:34;12.70;99.90
22781;DHT22;11557;50.884;4.322;2023-11-19T06:34:59;12.70;99.90
22781;DHT22;11557;50.884;4.322;2023-11-19T06:37:25;12.60;99.90
22781;DHT22;11557;50.884;4.322;2023-11-19T06:39:52;12.50;99.90
22781;DHT22;11557;50.884;4.322;2023-11-19T06:42:18;12.50;99.90
22781;DHT22;11557;50.884;4.322;2023-11-19T06:44:44;12.50;99.90
22781;DHT22;11557;50.884;4.322;2023-11-19T06:47:09;12.50;99.90
22781;DHT22;11557;50.884;4.322;2023-11-19T06:49:35;12.50;99.90
22781;DHT22;11557;50.884;4.322;2023-11-19T06:52:01;12.50;99.90
22781;DHT22;11557;50.884;4.322;2023-11-19T06:54:26;12.50;99.90
22781;DHT22;11557;50.884;4.322;2023-11-19T06:56:52;12.60;99.90
22781;DHT22;11557;50.884;4.322;2023-11-19T06:59:17;12.70;99.90
22781;DHT22;11557;50.884;4.322;2023-11-19T07:01:43;12.60;99.90
22781;DHT22;11557;50.884;4.322;2023-11-19T07:04:12;12.60;99.90
22781;DHT22;11557;50.884;4.322;2023-11-19T07:06:38;12.60;99.90
22781;DHT22;11557;50.884;4.322;2023-11-19T07:09:06;12.50;99.90
22781;DHT22;11557;50.884;4.322;2023-11-19T07:11:39;12.60;99.90
22781;DHT22;11557;50.884;4.322;2023-11-19T07:14:06;12.60;99.90
22781;DHT22;11557;50.884;4.322;2023-11-19T07:16:33;12.50;99.90
22781;DHT22;11557;50.884;4.322;2023-11-19T07:19:07;12.40;99.90
22781;DHT22;11557;50.884;4.322;2023-11-19T07:21:33;12.40;99.90
22781;DHT22;11557;50.884;4.322;2023-11-19T07:23:59;12.40;99.90
22781;DHT22;11557;50.884;4.322;2023-11-19T07:26:25;12.50;99.90
22781;DHT22;11557;50.884;4.322;2023-11-19T07:28:51;12.50;99.90
22781;DHT22;11557;50.884;4.322;2023-11-19T07:31:17;12.80;99.90
22781;DHT22;11557;50.884;4.322;2023-11-19T07:33:46;12.60;99.90
22781;DHT22;11557;50.884;4.322;2023-11-19T07:36:13;12.60;99.90
22781;DHT22;11557;50.884;4.322;2023-11-19T07:38:41;12.50;99.90
22781;DHT22;11557;50.884;4.322;2023-11-19T07:41:08;12.60;99.90
22781;DHT22;11557;50.884;4.322;2023-11-19T07:43:39;12.50;99.90
22781;DHT22;11557;50.884;4.322;2023-11-19T07:46:10;12.60;99.90
22781;DHT22;11557;50.884;4.322;2023-11-19T07:48:41;12.50;99.90
22781;DHT22;11557;50.884;4.322;2023-11-19T07:51:08;12.70;99.90
22781;DHT22;11557;50.884;4.322;2023-11-19T07:53:34;12.60;99.90
22781;DHT22;11557;50.884;4.322;2023-11-19T07:56:00;12.70;99.90
22781;DHT22;11557;50.884;4.322;2023-11-19T07:58:26;12.70;99.90
22781;DHT22;11557;50.884;4.322;2023-11-19T08:00:52;12.70;99.90
22781;DHT22;11557;50.884;4.322;2023-11-19T08:03:18;12.70;99.90
22781;DHT22;11557;50.884;4.322;2023-11-19T08:05:49;12.70;99.90
22781;DHT22;11557;50.884;4.322;2023-11-19T08:08:16;12.70;99.90
22781;DHT22;11557;50.884;4.322;2023-11-19T08:10:42;12.70;99.90
22781;DHT22;11557;50.884;4.322;2023-11-19T08:13:10;12.80;99.90
22781;DHT22;11557;50.884;4.322;2023-11-19T08:15:35;12.90;99.90
22781;DHT22;11557;50.884;4.322;2023-11-19T08:18:01;13.00;99.90
22781;DHT22;11557;50.884;4.322;2023-11-19T08:20:27;13.00;99.90
22781;DHT22;11557;50.884;4.322;2023-11-19T08:22:53;12.90;99.90
22781;DHT22;11557;50.884;4.322;2023-11-19T08:25:19;12.80;99.90
22781;DHT22;11557;50.884;4.322;2023-11-19T08:27:45;12.90;99.90
22781;DHT22;11557;50.884;4.322;2023-11-19T08:30:12;12.90;99.90
22781;DHT22;11557;50.884;4.322;2023-11-19T08:32:38;12.80;99.90
22781;DHT22;11557;50.884;4.322;2023-11-19T08:35:04;13.60;99.90
22781;DHT22;11557;50.884;4.322;2023-11-19T08:37:31;12.80;99.90
22781;DHT22;11557;50.884;4.322;2023-11-19T08:39:56;13.00;99.90
22781;DHT22;11557;50.884;4.322;2023-11-19T08:42:22;12.90;99.90
22781;DHT22;11557;50.884;4.322;2023-11-19T08:44:51;12.80;99.90
22781;DHT22;11557;50.884;4.322;2023-11-19T08:47:19;12.70;99.90
22781;DHT22;11557;50.884;4.322;2023-11-19T08:49:45;13.10;99.90
22781;DHT22;11557;50.884;4.322;2023-11-19T08:52:11;12.50;99.90
22781;DHT22;11557;50.884;4.322;2023-11-19T08:54:37;12.50;99.90
22781;DHT22;11557;50.884;4.322;2023-11-19T08:57:04;12.50;99.90
22781;DHT22;11557;50.884;4.322;2023-11-19T08:59:30;12.50;99.90
22781;DHT22;11557;50.884;4.322;2023-11-19T09:01:55;12.60;99.90
22781;DHT22;11557;50.884;4.322;2023-11-19T09:04:21;12.60;99.90
22781;DHT22;11557;50.884;4.322;2023-11-19T09:06:49;12.60;99.90
22781;DHT22;11557;50.884;4.322;2023-11-19T09:09:15;12.70;99.90
22781;DHT22;11557;50.884;4.322;2023-11-19T09:11:41;12.80;99.90
22781;DHT22;11557;50.884;4.322;2023-11-19T09:14:07;12.70;99.90
22781;DHT22;11557;50.884;4.322;2023-11-19T09:16:33;12.80;99.90
22781;DHT22;11557;50.884;4.322;2023-11-19T09:18:59;12.90;99.90
22781;DHT22;11557;50.884;4.322;2023-11-19T09:21:28;12.80;99.90
22781;DHT22;11557;50.884;4.322;2023-11-19T09:23:56;12.80;99.90
22781;DHT22;11557;50.884;4.322;2023-11-19T09:26:22;13.00;99.90
22781;DHT22;11557;50.884;4.322;2023-11-19T09:28:48;13.10;99.90
22781;DHT22;11557;50.884;4.322;2023-11-19T09:31:15;13.10;99.90
22781;DHT22;11557;50.884;4.322;2023-11-19T09:33:40;13.10;99.90
22781;DHT22;11557;50.884;4.322;2023-11-19T09:36:06;13.20;99.90
22781;DHT22;11557;50.884;4.322;2023-11-19T09:38:32;13.00;99.90
22781;DHT22;11557;50.884;4.322;2023-11-19T09:41:01;13.70;99.90
22781;DHT22;11557;50.884;4.322;2023-11-19T09:43:27;13.20;99.90
22781;DHT22;11557;50.884;4.322;2023-11-19T09:45:57;13.50;99.90
22781;DHT22;11557;50.884;4.322;2023-11-19T09:48:25;13.90;99.90
22781;DHT22;11557;50.884;4.322;2023-11-19T09:50:51;14.20;99.90
22781;DHT22;11557;50.884;4.322;2023-11-19T09:53:18;14.50;99.90
22781;DHT22;11557;50.884;4.322;2023-11-19T09:55:45;14.60;99.90
22781;DHT22;11557;50.884;4.322;2023-11-19T09:58:12;14.60;99.90
22781;DHT22;11557;50.884;4.322;2023-11-19T10:00:40;14.80;99.90
22781;DHT22;11557;50.884;4.322;2023-11-19T10:03:07;14.90;99.90
22781;DHT22;11557;50.884;4.322;2023-11-19T10:05:36;15.10;99.90
22781;DHT22;11557;50.884;4.322;2023-11-19T10:08:03;15.20;99.90
22781;DHT22;11557;50.884;4.322;2023-11-19T10:10:29;15.60;99.90
22781;DHT22;11557;50.884;4.322;2023-11-19T10:12:55;15.30;99.90
22781;DHT22;11557;50.884;4.322;2023-11-19T10:15:22;15.10;99.90
22781;DHT22;11557;50.884;4.322;2023-11-19T10:17:49;15.10;99.90
22781;DHT22;11557;50.884;4.322;2023-11-19T10:20:15;15.00;99.90
22781;DHT22;11557;50.884;4.322;2023-11-19T10:22:41;15.00;99.90
22781;DHT22;11557;50.884;4.322;2023-11-19T10:25:24;14.90;99.90
22781;DHT22;11557;50.884;4.322;2023-11-19T10:27:51;14.70;99.90
22781;DHT22;11557;50.884;4.322;2023-11-19T10:30:25;14.60;99.90
22781;DHT22;11557;50.884;4.322;2023-11-19T10:33:12;14.40;99.90
22781;DHT22;11557;50.884;4.322;2023-11-19T10:35:56;14.20;99.90
22781;DHT22;11557;50.884;4.322;2023-11-19T10:38:23;14.10;99.90
22781;DHT22;11557;50.884;4.322;2023-11-19T10:40:49;14.10;99.90
22781;DHT22;11557;50.884;4.322;2023-11-19T10:43:17;14.00;99.90
22781;DHT22;11557;50.884;4.322;2023-11-19T10:45:43;14.00;99.90
22781;DHT22;11557;50.884;4.322;2023-11-19T10:48:09;13.80;99.90
22781;DHT22;11557;50.884;4.322;2023-11-19T10:50:36;13.70;99.90
22781;DHT22;11557;50.884;4.322;2023-11-19T10:53:03;13.70;99.90
22781;DHT22;11557;50.884;4.322;2023-11-19T10:55:34;13.70;99.90
22781;DHT22;11557;50.884;4.322;2023-11-19T10:58:10;13.80;99.90
22781;DHT22;11557;50.884;4.322;2023-11-19T11:00:46;13.80;99.90
22781;DHT22;11557;50.884;4.322;2023-11-19T11:03:18;14.00;99.90
22781;DHT22;11557;50.884;4.322;2023-11-19T11:05:46;13.90;99.90
22781;DHT22;11557;50.884;4.322;2023-11-19T11:08:13;13.90;99.90
22781;DHT22;11557;50.884;4.322;2023-11-19T11:10:54;13.90;99.90
22781;DHT22;11557;50.884;4.322;2023-11-19T11:13:23;13.80;99.90
22781;DHT22;11557;50.884;4.322;2023-11-19T11:15:50;13.70;99.90
22781;DHT22;11557;50.884;4.322;2023-11-19T11:18:16;13.70;99.90
22781;DHT22;11557;50.884;4.322;2023-11-19T11:20:45;13.70;99.90
22781;DHT22;11557;50.884;4.322;2023-11-19T11:23:28;13.70;99.90
22781;DHT22;11557;50.884;4.322;2023-11-19T11:26:29;13.90;99.90
22781;DHT22;11557;50.884;4.322;2023-11-19T11:29:03;13.90;99.90
22781;DHT22;11557;50.884;4.322;2023-11-19T11:31:42;14.00;99.90
22781;DHT22;11557;50.884;4.322;2023-11-19T11:34:35;14.10;99.90
22781;DHT22;11557;50.884;4.322;2023-11-19T11:39:29;14.30;99.90
22781;DHT22;11557;50.884;4.322;2023-11-19T11:44:59;14.40;99.90
22781;DHT22;11557;50.884;4.322;2023-11-19T11:50:22;14.40;99.90
22781;DHT22;11557;50.884;4.322;2023-11-19T11:55:27;14.60;99.90
22781;DHT22;11557;50.884;4.322;2023-11-19T11:57:54;14.60;99.90
22781;DHT22;11557;50.884;4.322;2023-11-19T12:02:56;14.70;99.90
22781;DHT22;11557;50.884;4.322;2023-11-19T12:05:22;14.70;99.90
22781;DHT22;11557;50.884;4.322;2023-11-19T12:08:00;14.80;99.90
22781;DHT22;11557;50.884;4.322;2023-11-19T12:10:30;14.70;99.90
22781;DHT22;11557;50.884;4.322;2023-11-19T12:13:04;14.70;99.90
22781;DHT22;11557;50.884;4.322;2023-11-19T12:15:32;14.60;99.90
22781;DHT22;11557;50.884;4.322;2023-11-19T12:17:58;14.40;99.90
22781;DHT22;11557;50.884;4.322;2023-11-19T12:20:26;14.30;99.90
22781;DHT22;11557;50.884;4.322;2023-11-19T12:22:53;14.10;99.90
22781;DHT22;11557;50.884;4.322;2023-11-19T12:25:19;14.20;99.90
22781;DHT22;11557;50.884;4.322;2023-11-19T12:27:49;14.10;99.90
22781;DHT22;11557;50.884;4.322;2023-11-19T12:30:25;14.00;99.90
22781;DHT22;11557;50.884;4.322;2023-11-19T12:32:52;14.10;99.90
22781;DHT22;11557;50.884;4.322;2023-11-19T12:35:19;13.90;99.90
22781;DHT22;11557;50.884;4.322;2023-11-19T12:37:46;13.90;99.90
22781;DHT22;11557;50.884;4.322;2023-11-19T12:40:19;13.70;99.90
22781;DHT22;11557;50.884;4.322;2023-11-19T12:42:46;13.80;99.90
22781;DHT22;11557;50.884;4.322;2023-11-19T12:45:12;13.80;99.90
22781;DHT22;11557;50.884;4.322;2023-11-19T12:47:39;13.70;99.90
22781;DHT22;11557;50.884;4.322;2023-11-19T12:50:07;13.70;99.90
22781;DHT22;11557;50.884;4.322;2023-11-19T12:52:37;13.70;99.90
22781;DHT22;11557;50.884;4.322;2023-11-19T12:55:25;13.60;99.90
22781;DHT22;11557;50.884;4.322;2023-11-19T12:57:49;13.60;99.90
22781;DHT22;11557;50.884;4.322;2023-11-19T13:00:19;13.60;99.90
22781;DHT22;11557;50.884;4.322;2023-11-19T13:02:52;13.70;99.90
22781;DHT22;11557;50.884;4.322;2023-11-19T13:05:33;13.80;99.90
22781;DHT22;11557;50.884;4.322;2023-11-19T13:08:02;13.90;99.90
22781;DHT22;11557;50.884;4.322;2023-11-19T13:10:29;13.80;99.90
22781;DHT22;11557;50.884;4.322;2023-11-19T13:13:10;14.20;99.90
22781;DHT22;11557;50.884;4.322;2023-11-19T13:15:36;13.80;99.90
22781;DHT22;11557;50.884;4.322;2023-11-19T13:18:02;13.90;99.90
22781;DHT22;11557;50.884;4.322;2023-11-19T13:20:28;13.80;99.90
22781;DHT22;11557;50.884;4.322;2023-11-19T13:23:01;13.90;99.90
22781;DHT22;11557;50.884;4.322;2023-11-19T13:25:28;13.90;99.90
22781;DHT22;11557;50.884;4.322;2023-11-19T13:27:54;13.90;99.90
22781;DHT22;11557;50.884;4.322;2023-11-19T13:30:21;13.90;99.90
22781;DHT22;11557;50.884;4.322;2023-11-19T13:32:48;13.90;99.90
22781;DHT22;11557;50.884;4.322;2023-11-19T13:35:14;13.90;99.90
22781;DHT22;11557;50.884;4.322;2023-11-19T13:37:40;13.70;99.90
22781;DHT22;11557;50.884;4.322;2023-11-19T13:40:09;13.50;99.90
22781;DHT22;11557;50.884;4.322;2023-11-19T13:42:36;13.40;99.90
22781;DHT22;11557;50.884;4.322;2023-11-19T13:45:05;13.30;99.90
22781;DHT22;11557;50.884;4.322;2023-11-19T13:47:31;13.40;99.90
22781;DHT22;11557;50.884;4.322;2023-11-19T13:49:56;13.40;99.90
22781;DHT22;11557;50.884;4.322;2023-11-19T13:52:22;13.60;99.90
22781;DHT22;11557;50.884;4.322;2023-11-19T13:54:48;13.50;99.90
22781;DHT22;11557;50.884;4.322;2023-11-19T13:57:13;13.50;99.90
22781;DHT22;11557;50.884;4.322;2023-11-19T13:59:40;13.60;99.90
22781;DHT22;11557;50.884;4.322;2023-11-19T14:02:06;13.60;99.90
22781;DHT22;11557;50.884;4.322;2023-11-19T14:04:33;13.50;99.90
22781;DHT22;11557;50.884;4.322;2023-11-19T14:06:59;13.60;99.90
22781;DHT22;11557;50.884;4.322;2023-11-19T14:09:24;13.80;99.90
22781;DHT22;11557;50.884;4.322;2023-11-19T14:11:50;13.70;99.90
22781;DHT22;11557;50.884;4.322;2023-11-19T14:14:16;13.70;99.90
22781;DHT22;11557;50.884;4.322;2023-11-19T14:16:42;13.70;99.90
22781;DHT22;11557;50.884;4.322;2023-11-19T14:19:08;13.60;99.90
22781;DHT22;11557;50.884;4.322;2023-11-19T14:21:33;13.70;99.90
22781;DHT22;11557;50.884;4.322;2023-11-19T14:23:59;13.70;99.90
22781;DHT22;11557;50.884;4.322;2023-11-19T14:26:25;13.80;99.90
22781;DHT22;11557;50.884;4.322;2023-11-19T14:28:50;13.70;99.90
22781;DHT22;11557;50.884;4.322;2023-11-19T14:31:16;13.60;99.90
22781;DHT22;11557;50.884;4.322;2023-11-19T14:33:41;13.50;99.90
22781;DHT22;11557;50.884;4.322;2023-11-19T14:36:07;13.50;99.90
22781;DHT22;11557;50.884;4.322;2023-11-19T14:38:33;13.40;99.90
22781;DHT22;11557;50.884;4.322;2023-11-19T14:40:59;13.50;99.90
22781;DHT22;11557;50.884;4.322;2023-11-19T14:43:25;13.30;99.90
22781;DHT22;11557;50.884;4.322;2023-11-19T14:45:51;13.20;99.90
22781;DHT22;11557;50.884;4.322;2023-11-19T14:48:17;13.10;99.90
22781;DHT22;11557;50.884;4.322;2023-11-19T14:50:43;13.10;99.90
22781;DHT22;11557;50.884;4.322;2023-11-19T14:53:12;13.10;99.90
22781;DHT22;11557;50.884;4.322;2023-11-19T14:55:37;13.10;99.90
22781;DHT22;11557;50.884;4.322;2023-11-19T14:58:03;13.10;99.90
22781;DHT22;11557;50.884;4.322;2023-11-19T15:00:29;13.10;99.90
22781;DHT22;11557;50.884;4.322;2023-11-19T15:02:54;13.20;99.90
22781;DHT22;11557;50.884;4.322;2023-11-19T15:05:21;13.30;99.90
22781;DHT22;11557;50.884;4.322;2023-11-19T15:07:47;13.30;99.90
22781;DHT22;11557;50.884;4.322;2023-11-19T15:10:13;13.20;99.90
22781;DHT22;11557;50.884;4.322;2023-11-19T15:12:39;13.10;99.90
22781;DHT22;11557;50.884;4.322;2023-11-19T15:15:09;13.10;99.90
22781;DHT22;11557;50.884;4.322;2023-11-19T15:17:38;13.10;99.90
22781;DHT22;11557;50.884;4.322;2023-11-19T15:20:04;13.20;99.90
22781;DHT22;11557;50.884;4.322;2023-11-19T15:22:30;13.20;99.90
22781;DHT22;11557;50.884;4.322;2023-11-19T15:24:56;13.30;99.90
22781;DHT22;11557;50.884;4.322;2023-11-19T15:27:22;13.30;99.90
22781;DHT22;11557;50.884;4.322;2023-11-19T15:29:48;13.30;99.90
22781;DHT22;11557;50.884;4.322;2023-11-19T15:32:14;13.30;99.90
22781;DHT22;11557;50.884;4.322;2023-11-19T15:34:39;13.40;99.90
22781;DHT22;11557;50.884;4.322;2023-11-19T15:37:07;13.40;99.90
22781;DHT22;11557;50.884;4.322;2023-11-19T15:39:33;13.40;99.90
22781;DHT22;11557;50.884;4.322;2023-11-19T15:41:59;13.50;99.90
22781;DHT22;11557;50.884;4.322;2023-11-19T15:44:25;13.50;99.90
22781;DHT22;11557;50.884;4.322;2023-11-19T15:46:51;13.40;99.90